Time;durP1;ratioP1;P1;durP2;ratioP2;P2;SDS_P1;SDS_P2;PMS_P1;PMS_P2;Temp;Humidity;BMP_temperature;BMP_pressure;BME280_temperature;BME280_humidity;BME280_pressure;Samples;Min_cycle;Max_cycle;Signal;HPM_P1;HPM_P2
2021/12/11 00:00:29;;;;;;;16.63;9.87;;;;;;;2.11;88.59;94674.41;1784715;80;21066;-72
2021/12/11 00:03:08;;;;;;;20.60;10.85;;;;;;;2.13;88.84;94680.48;1784577;80;21528;-72
2021/12/11 00:05:37;;;;;;;19.47;10.97;;;;;;;2.20;89.08;94685.70;1784249;80;21057;-72
2021/12/11 00:08:08;;;;;;;16.60;10.00;;;;;;;2.24;89.08;94679.16;1784682;80;21499;-71
2021/12/11 00:10:46;;;;;;;14.30;7.80;;;;;;;2.21;88.59;94684.38;1784596;80;20990;-72
2021/12/11 00:13:17;;;;;;;19.10;10.73;;;;;;;2.21;88.29;94682.22;1784116;80;21086;-72
2021/12/11 00:15:47;;;;;;;16.30;9.27;;;;;;;2.17;88.39;94681.37;1784686;80;21500;-72
2021/12/11 00:18:19;;;;;;;16.97;9.23;;;;;;;2.20;88.37;94693.08;1784486;80;20971;-72
2021/12/11 00:21:02;;;;;;;14.23;8.93;;;;;;;2.14;87.95;94688.75;1786084;79;21038;-72
2021/12/11 00:23:40;;;;;;;16.40;9.60;;;;;;;2.12;88.09;94701.33;1781790;80;20986;-73
2021/12/11 00:26:11;;;;;;;18.37;9.70;;;;;;;2.03;87.84;94691.77;1760025;81;21022;-73
2021/12/11 00:28:48;;;;;;;14.37;8.47;;;;;;;1.95;87.72;94690.92;1782254;80;20974;-72
2021/12/11 00:31:17;;;;;;;21.97;12.40;;;;;;;1.86;87.54;94696.97;1760203;81;21022;-72
2021/12/11 00:33:47;;;;;;;21.27;12.17;;;;;;;1.87;87.87;94698.72;1781906;80;20994;-72
2021/12/11 00:36:18;;;;;;;25.77;12.67;;;;;;;1.69;87.95;94700.02;1759927;81;21030;-72
2021/12/11 00:38:49;;;;;;;15.40;9.10;;;;;;;1.63;87.93;94693.49;1782162;80;21025;-72
2021/12/11 00:41:19;;;;;;;14.73;8.80;;;;;;;1.59;88.25;94700.84;1760094;81;21563;-72
2021/12/11 00:43:49;;;;;;;26.67;14.77;;;;;;;1.55;88.14;94707.78;1760330;80;20982;-72
2021/12/11 00:46:23;;;;;;;95.93;43.60;;;;;;;1.52;88.13;94710.39;1781858;80;21054;-71
2021/12/11 00:48:50;;;;;;;16.00;9.50;;;;;;;1.42;88.00;94702.13;1759683;80;21535;-72
2021/12/11 00:51:21;;;;;;;13.10;7.60;;;;;;;1.44;88.40;94700.41;1781787;80;21006;-72
2021/12/11 00:53:53;;;;;;;12.00;8.43;;;;;;;1.39;88.17;94701.70;1759894;81;21014;-72
2021/12/11 00:56:28;;;;;;;11.90;6.57;;;;;;;1.37;88.69;94706.02;1782195;80;21556;-73
2021/12/11 00:59:02;;;;;;;8.73;6.40;;;;;;;1.33;88.65;94704.70;1748549;82;20994;-72
2021/12/11 01:01:36;;;;;;;9.03;6.50;;;;;;;1.32;88.59;94711.64;1779387;81;21492;-72
2021/12/11 01:04:17;;;;;;;15.77;10.10;;;;;;;1.26;88.28;94708.59;1758734;81;21000;-72
2021/12/11 01:06:55;;;;;;;18.70;12.03;;;;;;;1.18;88.08;94710.28;1781823;80;20998;-72
2021/12/11 01:09:33;;;;;;;11.63;7.87;;;;;;;1.12;88.24;94715.47;1759672;81;21516;-73
2021/12/11 01:12:13;;;;;;;13.43;7.27;;;;;;;1.13;88.53;94722.83;1781939;80;21007;-72
2021/12/11 01:15:06;;;;;;;12.47;7.87;;;;;;;1.18;88.86;94731.50;1759903;81;21010;-72
2021/12/11 01:17:48;;;;;;;11.30;8.00;;;;;;;1.13;88.50;94728.02;1782201;80;21070;-72
2021/12/11 01:20:22;;;;;;;10.80;7.43;;;;;;;1.10;88.70;94719.79;1759241;81;21121;-71
2021/12/11 01:22:51;;;;;;;8.30;4.83;;;;;;;1.08;88.78;94721.10;1782691;80;21126;-72
2021/12/11 01:25:25;;;;;;;9.53;6.77;;;;;;;1.07;88.71;94718.48;1760117;81;21031;-72
2021/12/11 01:28:00;;;;;;;10.97;6.67;;;;;;;1.07;88.83;94719.78;1781937;80;21090;-72
2021/12/11 01:30:34;;;;;;;11.20;6.87;;;;;;;1.13;89.06;94726.28;1760108;81;21018;-72
2021/12/11 01:33:05;;;;;;;12.87;7.20;;;;;;;1.18;89.13;94723.71;1781289;80;20983;-72
2021/12/11 01:35:32;;;;;;;14.13;8.43;;;;;;;1.20;88.85;94731.95;1759680;81;21002;-72
2021/12/11 01:38:13;;;;;;;20.80;10.63;;;;;;;1.08;88.68;94728.00;1781773;80;20967;-72
2021/12/11 01:40:42;;;;;;;9.40;5.63;;;;;;;1.03;88.91;94733.61;1760078;81;21026;-72
2021/12/11 01:43:11;;;;;;;13.20;7.57;;;;;;;1.08;88.75;94739.29;1781512;80;21604;-72
2021/12/11 01:45:43;;;;;;;13.97;8.80;;;;;;;0.99;88.45;94745.73;1759965;81;21027;-71
2021/12/11 01:48:10;;;;;;;13.10;8.07;;;;;;;0.92;88.88;94743.10;1782139;80;21022;-73
2021/12/11 01:50:42;;;;;;;13.33;7.77;;;;;;;0.95;89.06;94723.62;1759905;81;21485;-72
2021/12/11 01:53:20;;;;;;;21.67;12.87;;;;;;;0.96;89.16;94731.84;1782280;80;21495;-72
2021/12/11 01:55:55;;;;;;;18.67;10.87;;;;;;;0.90;88.76;94735.73;1759078;81;21023;-72
2021/12/11 01:58:27;;;;;;;37.87;20.13;;;;;;;0.84;88.44;94730.08;1782012;80;21505;-72
2021/12/11 02:01:03;;;;;;;19.73;9.80;;;;;;;0.77;88.73;94730.91;1760290;81;21050;-72
2021/12/11 02:03:33;;;;;;;15.73;8.70;;;;;;;0.72;89.04;94727.42;1781782;80;21060;-72
2021/12/11 02:06:00;;;;;;;15.90;9.83;;;;;;;0.63;88.66;94725.22;1759977;81;20991;-72
2021/12/11 02:08:32;;;;;;;13.87;8.37;;;;;;;0.56;89.33;94727.34;1781876;80;21600;-72
2021/12/11 02:11:10;;;;;;;12.30;7.53;;;;;;;0.54;89.94;94721.70;1760305;81;21547;-72
2021/12/11 02:13:48;;;;;;;12.67;7.67;;;;;;;0.62;90.05;94732.55;1781945;80;21072;-72
2021/12/11 02:16:24;;;;;;;10.77;7.20;;;;;;;0.63;89.60;94733.41;1759975;81;21003;-72
2021/12/11 02:18:57;;;;;;;9.87;5.97;;;;;;;0.59;89.44;94736.44;1782049;80;20994;-72
2021/12/11 02:21:32;;;;;;;12.13;8.00;;;;;;;0.61;89.26;94737.31;1760329;81;21615;-72
2021/12/11 02:24:05;;;;;;;13.43;8.03;;;;;;;0.49;89.38;94737.24;1781929;80;21038;-72
2021/12/11 02:26:36;;;;;;;12.67;7.67;;;;;;;0.55;89.78;94731.21;1781406;80;20979;-72
2021/12/11 02:29:14;;;;;;;10.00;6.67;;;;;;;0.55;89.97;94728.62;1760169;81;20990;-72
2021/12/11 02:32:08;;;;;;;9.87;6.17;;;;;;;0.61;90.29;94733.86;1774816;80;21069;-72
2021/12/11 02:34:44;;;;;;;;;;;;;;;0.67;89.94;94744.27;1761562;81;21019;-72
2021/12/11 02:37:18;;;;;;;8.07;5.03;;;;;;;0.59;89.73;94747.26;1760253;81;20098;-72
2021/12/11 02:40:02;;;;;;;7.37;4.53;;;;;;;0.60;89.65;94752.44;1782021;80;21070;-71
2021/12/11 02:42:46;;;;;;;7.37;4.83;;;;;;;0.55;89.37;94744.19;1759517;81;21042;-72
2021/12/11 02:45:19;;;;;;;7.10;4.70;;;;;;;0.46;89.14;94754.54;1781383;80;21054;-72
2021/12/11 02:48:00;;;;;;;6.87;5.00;;;;;;;0.43;89.07;94752.35;1760143;81;21062;-72
2021/12/11 02:50:50;;;;;;;7.67;5.03;;;;;;;0.39;89.30;94753.18;1781821;80;21049;-71
2021/12/11 02:53:29;;;;;;;7.67;5.00;;;;;;;0.45;89.60;94756.23;1758552;81;21035;-72
2021/12/11 02:56:19;;;;;;;8.60;4.93;;;;;;;0.49;89.68;94758.44;1781894;80;20991;-72
2021/12/11 02:58:52;;;;;;;9.47;5.53;;;;;;;0.51;89.69;94761.48;1760392;81;21038;-72
2021/12/11 03:01:30;;;;;;;10.43;6.00;;;;;;;0.52;89.69;94755.42;1782157;80;21025;-72
2021/12/11 03:04:18;;;;;;;8.10;5.57;;;;;;;0.49;89.63;94753.25;1760265;81;21070;-72
2021/12/11 03:06:41;;;;;;;8.43;5.73;;;;;;;0.42;89.62;94754.48;1779960;80;21093;-72
2021/12/11 03:09:08;;;;;;;12.90;5.97;;;;;;;0.50;89.92;94757.57;1759682;81;21022;-72
2021/12/11 03:11:35;;;;;;;9.63;6.50;;;;;;;0.55;89.97;94761.92;1782368;80;21475;-72
2021/12/11 03:14:04;;;;;;;8.77;5.47;;;;;;;0.60;90.04;94761.52;1759978;81;21063;-72
2021/12/11 03:16:34;;;;;;;9.33;6.07;;;;;;;0.64;89.82;94757.23;1782134;80;21101;-72
2021/12/11 03:19:04;;;;;;;9.40;5.90;;;;;;;0.65;89.59;94773.23;1760273;81;21434;-72
2021/12/11 03:21:31;;;;;;;12.10;6.50;;;;;;;0.56;89.10;94775.36;1781771;80;21045;-72
2021/12/11 03:23:59;;;;;;;10.83;6.37;;;;;;;0.52;89.23;94782.67;1759934;81;21054;-71
2021/12/11 03:26:26;;;;;;;7.63;4.43;;;;;;;0.49;89.33;94774.02;1782149;80;21113;-71
2021/12/11 03:28:54;;;;;;;9.63;5.90;;;;;;;0.39;89.19;94765.30;1759553;81;20999;-72
2021/12/11 03:31:21;;;;;;;20.20;10.10;;;;;;;0.41;89.45;94765.74;1781882;80;21101;-72
2021/12/11 03:33:53;;;;;;;9.63;6.27;;;;;;;0.43;89.38;94769.22;1759868;81;20999;-72
2021/12/11 03:36:22;;;;;;;13.07;7.27;;;;;;;0.44;89.13;94777.87;1781916;80;21050;-72
2021/12/11 03:38:54;;;;;;;13.10;7.00;;;;;;;0.33;89.03;94768.72;1760307;81;21564;-72
2021/12/11 03:41:24;;;;;;;11.97;7.13;;;;;;;0.31;89.42;94774.32;1782157;80;21583;-72
2021/12/11 03:43:52;;;;;;;12.47;7.63;;;;;;;0.34;89.51;94774.34;1760111;81;21003;-72
2021/12/11 03:46:20;;;;;;;13.77;7.53;;;;;;;0.44;89.80;94767.48;1782217;80;21508;-72
2021/12/11 03:48:54;;;;;;;12.70;7.87;;;;;;;0.43;89.48;94754.95;1759804;81;21046;-72
2021/12/11 03:51:26;;;;;;;12.87;8.00;;;;;;;0.49;89.69;94755.84;1781951;80;20998;-72
2021/12/11 03:53:54;;;;;;;11.17;7.53;;;;;;;0.55;89.77;94751.55;1760396;81;21461;-72
2021/12/11 03:56:22;;;;;;;11.67;7.60;;;;;;;0.48;88.89;94747.20;1781774;80;21014;-72
2021/12/11 03:58:51;;;;;;;13.83;7.90;;;;;;;0.37;88.65;94747.10;1760040;81;21080;-71
2021/12/11 04:01:34;;;;;;;12.37;7.70;;;;;;;0.35;88.78;94746.66;1782122;80;21069;-72
2021/12/11 04:04:08;;;;;;;12.60;7.90;;;;;;;0.33;88.63;94750.99;1760205;81;21054;-72
2021/12/11 04:06:36;;;;;;;12.60;7.57;;;;;;;0.30;88.73;94750.51;1782163;80;21067;-71
2021/12/11 04:09:07;;;;;;;13.70;8.53;;;;;;;0.17;88.33;94752.58;1760207;81;21042;-72
2021/12/11 04:11:35;;;;;;;14.77;8.93;;;;;;;0.09;88.56;94743.88;1782006;80;21540;-72
2021/12/11 04:14:10;;;;;;;11.57;7.77;;;;;;;0.20;89.51;94739.23;1760136;81;21026;-72
2021/12/11 04:16:39;;;;;;;13.60;8.27;;;;;;;0.25;89.18;94737.94;1782163;80;21006;-71
2021/12/11 04:19:09;;;;;;;11.13;6.83;;;;;;;0.24;88.83;94738.80;1760123;81;21038;-72
2021/12/11 04:21:38;;;;;;;10.30;6.17;;;;;;;0.13;88.33;94742.63;1796274;80;21040;-72
2021/12/11 04:24:08;;;;;;;9.93;6.33;;;;;;;0.05;88.53;94742.11;1798753;80;21030;-72
2021/12/11 04:26:35;;;;;;;9.70;5.93;;;;;;;0.08;88.92;94744.31;1798932;80;21001;-72
2021/12/11 04:29:03;;;;;;;9.03;5.73;;;;;;;0.11;88.89;94744.33;1793834;80;21006;-72
2021/12/11 04:31:33;;;;;;;8.43;5.33;;;;;;;0.11;88.87;94749.95;1784571;80;21048;-73
2021/12/11 04:34:06;;;;;;;8.90;5.07;;;;;;;0.05;88.53;94768.94;1784678;80;21017;-72
2021/12/11 04:36:41;;;;;;;7.85;4.95;;;;;;;-0.02;88.08;94770.60;1784824;80;21074;-73
2021/12/11 04:39:12;;;;;;;7.23;5.07;;;;;;;0.04;88.70;94775.40;1784570;80;20990;-72
2021/12/11 04:41:51;;;;;;;12.33;6.80;;;;;;;0.12;88.85;94776.32;1784597;80;20986;-72
2021/12/11 04:44:22;;;;;;;36.80;15.18;;;;;;;0.18;88.72;94785.03;1783145;80;20966;-72
2021/12/11 04:46:49;;;;;;;29.80;11.90;;;;;;;0.21;88.69;94781.16;1784259;80;21551;-72
2021/12/11 04:49:34;;;;;;;31.37;12.80;;;;;;;0.21;88.08;94795.42;1784513;80;21539;-72
2021/12/11 04:55:10;;;;;;;56.43;29.43;;;;;;;0.11;87.73;94801.40;1784627;80;21046;-72
2021/12/11 05:00:25;;;;;;;26.93;15.13;;;;;;;0.07;87.85;94807.84;1784220;80;21022;-72
2021/12/11 05:03:14;;;;;;;17.93;9.30;;;;;;;0.08;88.12;94809.16;1780879;80;21527;-72
2021/12/11 05:05:51;;;;;;;16.40;9.67;;;;;;;-0.12;87.68;94804.22;1779944;80;21098;-72
2021/12/11 05:08:48;;;;;;;12.60;7.37;;;;;;;-0.27;87.88;94812.72;1779649;80;21531;-72
2021/12/11 05:10:55;;;;;;;12.73;8.03;;;;;;;-0.40;88.35;94817.30;1779492;80;21022;-72
2021/12/11 05:13:18;;;;;;;18.00;11.03;;;;;;;-0.36;88.39;94817.36;1783860;80;21022;-72
2021/12/11 05:15:49;;;;;;;19.17;9.83;;;;;;;-0.39;88.68;94807.40;1784224;80;21086;-72
2021/12/11 05:18:21;;;;;;;24.53;11.57;;;;;;;-0.37;88.49;94809.16;1784719;80;20982;-72
2021/12/11 05:20:52;;;;;;;13.90;8.87;;;;;;;-0.45;88.78;94812.09;1781091;80;21612;-72
2021/12/11 05:23:20;;;;;;;25.63;12.70;;;;;;;-0.45;88.91;94809.07;1775949;81;21018;-72
2021/12/11 05:25:47;;;;;;;22.67;12.17;;;;;;;-0.48;89.45;94809.05;1775858;81;21048;-72
2021/12/11 05:28:15;;;;;;;19.33;11.40;;;;;;;-0.41;89.67;94811.69;1775645;80;21006;-72
2021/12/11 05:30:47;;;;;;;26.43;14.67;;;;;;;-0.49;89.88;94799.52;1776134;81;20998;-72
2021/12/11 05:33:16;;;;;;;24.10;13.43;;;;;;;-0.48;89.83;94794.80;1776162;81;20998;-72
2021/12/11 05:35:44;;;;;;;32.97;15.53;;;;;;;-0.62;90.16;94798.95;1775809;80;21006;-72
2021/12/11 05:38:14;;;;;;;27.93;13.43;;;;;;;-0.69;90.71;94801.88;1775845;81;21007;-72
2021/12/11 05:40:46;;;;;;;24.00;13.37;;;;;;;-0.65;90.56;94793.73;1776302;81;21074;-66
2021/12/11 05:43:13;;;;;;;28.60;15.00;;;;;;;-0.73;90.92;94796.64;1775111;80;20967;-72
2021/12/11 05:45:41;;;;;;;18.83;8.90;;;;;;;-0.74;91.09;94802.69;1775939;81;21022;-72
2021/12/11 05:48:10;;;;;;;11.20;6.87;;;;;;;-0.69;91.06;94799.72;1776111;81;20975;-72
2021/12/11 05:50:41;;;;;;;50.77;24.63;;;;;;;-0.75;90.89;94807.44;1776198;80;21066;-72
2021/12/11 05:53:09;;;;;;;243.27;75.20;;;;;;;-0.79;91.35;94812.98;1775921;81;21079;-72
2021/12/11 05:55:39;;;;;;;36.30;18.13;;;;;;;-0.75;91.54;94820.39;1776263;81;21011;-73
2021/12/11 05:58:13;;;;;;;35.17;20.10;;;;;;;-0.91;92.16;94821.89;1782468;80;21021;-72
2021/12/11 06:00:48;;;;;;;24.57;13.60;;;;;;;-0.88;92.42;94827.14;1721422;83;20992;-72
2021/12/11 06:03:16;;;;;;;22.40;13.93;;;;;;;-0.86;92.59;94830.59;1721468;83;21063;-72
2021/12/11 06:05:44;;;;;;;23.60;14.97;;;;;;;-0.85;92.31;94840.55;1744801;82;21027;-72
2021/12/11 06:08:13;;;;;;;36.37;21.97;;;;;;;-0.88;92.29;94848.72;1775708;80;21520;-72
2021/12/11 06:10:40;;;;;;;21.30;12.67;;;;;;;-0.83;92.59;94853.06;1776052;80;21038;-72
2021/12/11 06:13:09;;;;;;;14.67;9.53;;;;;;;-0.75;92.76;94851.47;1774171;80;21078;-71
2021/12/11 06:15:37;;;;;;;9.20;5.70;;;;;;;-0.67;92.76;94854.59;1776319;81;20983;-72
2021/12/11 06:18:04;;;;;;;40.13;31.97;;;;;;;-0.52;92.78;94866.86;1775997;80;21101;-71
2021/12/11 06:20:33;;;;;;;20.27;15.60;;;;;;;-0.46;92.40;94873.39;1775960;80;21078;-71
2021/12/11 06:23:00;;;;;;;20.43;12.07;;;;;;;-0.46;91.70;94879.87;1775832;80;21030;-72
2021/12/11 06:25:30;;;;;;;16.63;9.80;;;;;;;-0.37;91.80;94883.45;1776078;80;20998;-72
2021/12/11 06:27:58;;;;;;;18.97;11.17;;;;;;;-0.37;91.24;94886.05;1776232;80;21067;-71
2021/12/11 06:30:27;;;;;;;21.10;10.60;;;;;;;-0.39;90.95;94889.04;1776288;80;21046;-72
2021/12/11 06:32:55;;;;;;;12.03;7.03;;;;;;;-0.39;90.83;94896.81;1776523;80;21003;-72
2021/12/11 06:35:30;;;;;;;16.87;9.93;;;;;;;-0.33;90.82;94904.25;1776461;80;21002;-72
2021/12/11 06:37:59;;;;;;;194.40;115.93;;;;;;;-0.23;91.12;94910.38;1775709;80;21022;-72
2021/12/11 06:40:28;;;;;;;46.83;29.67;;;;;;;-0.18;90.63;94910.02;1776621;80;21002;-72
2021/12/11 06:42:56;;;;;;;62.10;30.70;;;;;;;-0.19;90.34;94924.27;1776255;80;21010;-72
2021/12/11 06:45:25;;;;;;;71.27;44.23;;;;;;;-0.26;89.90;94925.48;1776231;80;21015;-71
2021/12/11 06:47:53;;;;;;;19.43;9.80;;;;;;;-0.33;89.92;94925.39;1776468;80;21066;-71
2021/12/11 06:50:20;;;;;;;11.30;5.50;;;;;;;-0.35;89.98;94928.38;1776456;80;20974;-71
2021/12/11 06:52:49;;;;;;;15.30;9.03;;;;;;;-0.31;90.27;94937.52;1776025;80;21039;-72
2021/12/11 06:55:19;;;;;;;37.63;22.23;;;;;;;-0.23;90.22;94937.61;1776402;80;21002;-72
2021/12/11 06:57:48;;;;;;;12.83;6.90;;;;;;;-0.15;90.21;94946.77;1776533;81;21079;-71
2021/12/11 07:00:19;;;;;;;9.07;5.40;;;;;;;-0.10;90.32;94951.19;1776233;81;20979;-72
2021/12/11 07:02:47;;;;;;;6.60;4.37;;;;;;;-0.05;90.03;94952.51;1776350;81;21541;-71
2021/12/11 07:05:14;;;;;;;5.30;3.23;;;;;;;-0.05;89.88;94958.59;1776030;81;21021;-72
2021/12/11 07:07:42;;;;;;;4.60;3.37;;;;;;;-0.06;89.54;94965.91;1775697;81;21049;-72
2021/12/11 07:10:14;;;;;;;4.57;3.10;;;;;;;-0.07;89.40;94965.91;1776234;81;21061;-72
2021/12/11 07:12:43;;;;;;;3.33;2.50;;;;;;;-0.06;89.51;94967.20;1776025;81;21070;-72
2021/12/11 07:15:10;;;;;;;5.63;3.50;;;;;;;-0.08;89.32;94974.09;1752323;81;20978;-72
2021/12/11 07:17:38;;;;;;;5.70;3.60;;;;;;;-0.05;89.60;94977.14;1747857;82;21032;-72
2021/12/11 07:20:09;;;;;;;6.37;3.53;;;;;;;0.02;89.77;94978.10;1775857;81;21006;-72
2021/12/11 07:22:40;;;;;;;7.00;4.00;;;;;;;0.03;89.52;94979.42;1775982;80;20994;-72
2021/12/11 07:25:28;;;;;;;4.00;3.00;;;;;;;0.14;89.84;94988.19;1776230;80;21038;-72
2021/12/11 07:27:58;;;;;;;4.00;2.97;;;;;;;0.16;89.18;94987.78;1776170;81;21055;-72
2021/12/11 07:30:25;;;;;;;4.83;3.07;;;;;;;0.20;89.14;94988.68;1776113;81;21007;-72
2021/12/11 07:32:56;;;;;;;5.13;3.00;;;;;;;0.17;88.75;94992.55;1776047;81;20971;-71
2021/12/11 07:35:23;;;;;;;7.40;5.93;;;;;;;0.21;88.95;94990.44;1775900;80;21071;-71
2021/12/11 07:37:51;;;;;;;9.77;3.63;;;;;;;0.35;89.31;94986.69;1776119;80;20998;-72
2021/12/11 07:40:23;;;;;;;4.60;3.57;;;;;;;0.52;89.30;94992.06;1775662;81;21112;-72
2021/12/11 07:42:51;;;;;;;4.80;3.63;;;;;;;0.62;88.84;94990.00;1776157;80;21049;-72
2021/12/11 07:45:20;;;;;;;5.27;3.60;;;;;;;0.72;88.83;94997.02;1775960;81;21012;-72
2021/12/11 07:47:46;;;;;;;6.10;3.40;;;;;;;0.71;87.70;95000.48;1776126;81;21541;-72
2021/12/11 07:50:14;;;;;;;5.33;3.60;;;;;;;0.75;87.54;94998.77;1776082;80;21038;-72
2021/12/11 07:52:41;;;;;;;6.87;3.90;;;;;;;0.73;87.46;95003.97;1775473;81;21022;-72
2021/12/11 07:55:09;;;;;;;9.67;4.07;;;;;;;0.71;87.15;95004.81;1775658;81;21046;-72
2021/12/11 07:57:37;;;;;;;8.87;4.30;;;;;;;0.67;86.92;95007.78;1781978;80;20959;-72
2021/12/11 08:00:12;;;;;;;8.57;4.40;;;;;;;0.59;86.84;95010.74;1755613;81;21030;-73
2021/12/11 08:02:40;;;;;;;7.33;4.53;;;;;;;0.53;87.13;95018.45;1774010;80;21114;-72
2021/12/11 08:05:09;;;;;;;8.77;4.40;;;;;;;0.62;87.59;95022.45;1747583;82;21110;-72
2021/12/11 08:07:36;;;;;;;11.17;4.80;;;;;;;0.64;87.49;95020.74;1775955;81;21007;-72
2021/12/11 08:10:07;;;;;;;8.07;5.03;;;;;;;0.66;87.41;95016.87;1776079;80;21010;-72
2021/12/11 08:12:34;;;;;;;8.87;4.93;;;;;;;0.62;87.50;95015.95;1776446;80;21074;-71
2021/12/11 08:15:02;;;;;;;10.17;4.97;;;;;;;0.56;87.26;95026.30;1775964;81;21017;-71
2021/12/11 08:17:29;;;;;;;9.33;4.83;;;;;;;0.54;87.44;95015.02;1776545;80;21014;-71
2021/12/11 08:19:55;;;;;;;5.87;4.20;;;;;;;0.54;87.44;95010.69;1776104;81;21017;-71
2021/12/11 08:22:22;;;;;;;8.23;4.40;;;;;;;0.55;87.43;95013.71;1775595;80;21006;-72
2021/12/11 08:24:50;;;;;;;11.77;5.50;;;;;;;0.57;87.57;95009.85;1776061;81;21038;-72
2021/12/11 08:27:20;;;;;;;8.87;5.67;;;;;;;0.68;87.84;95015.14;1775793;81;21018;-72
2021/12/11 08:29:51;;;;;;;8.47;5.10;;;;;;;0.76;87.71;95027.80;1780826;80;20991;-72
2021/12/11 08:32:19;;;;;;;13.30;4.90;;;;;;;0.81;87.67;95024.37;1776278;81;21066;-72
2021/12/11 08:34:46;;;;;;;8.23;4.20;;;;;;;0.80;87.29;95023.92;1782723;80;20974;-72
2021/12/11 08:37:17;;;;;;;14.23;4.87;;;;;;;0.79;87.38;95036.91;1759791;81;21039;-72
2021/12/11 08:39:46;;;;;;;12.20;4.83;;;;;;;0.85;87.51;95041.71;1789894;79;20970;-72
2021/12/11 08:42:18;;;;;;;6.00;4.20;;;;;;;0.91;87.59;95040.03;1760059;81;21066;-72
2021/12/11 08:44:58;;;;;;;7.33;4.57;;;;;;;0.93;87.12;95048.28;1790026;80;20970;-72
2021/12/11 08:47:22;;;;;;;6.00;3.97;;;;;;;0.92;87.09;95050.45;1758763;81;21058;-72
2021/12/11 08:49:52;;;;;;;5.70;4.37;;;;;;;0.93;87.05;95052.17;1787051;80;21075;-72
2021/12/11 08:52:27;;;;;;;13.40;7.77;;;;;;;0.94;87.07;95052.64;1748291;82;21094;-72
2021/12/11 08:54:57;;;;;;;15.73;10.30;;;;;;;0.90;86.73;95046.95;1777384;80;20983;-72
2021/12/11 08:57:29;;;;;;;5.80;4.20;;;;;;;0.70;86.75;95061.03;1776286;80;20994;-71
2021/12/11 09:00:01;;;;;;;14.17;7.80;;;;;;;0.54;87.38;95053.52;1781498;80;20975;-72
2021/12/11 09:02:39;;;;;;;10.27;6.90;;;;;;;0.60;87.73;95064.39;1776203;81;20959;-71
2021/12/11 09:05:11;;;;;;;14.80;6.80;;;;;;;0.61;87.99;95072.20;1775520;81;20975;-72
2021/12/11 09:07:50;;;;;;;14.27;7.47;;;;;;;0.55;88.03;95066.92;1776254;81;21066;-72
2021/12/11 09:10:34;;;;;;;14.13;6.63;;;;;;;0.42;88.25;95071.55;1776019;81;21058;-71
2021/12/11 09:13:21;;;;;;;6.27;4.20;;;;;;;0.35;88.37;95072.31;1774035;80;21026;-72
2021/12/11 09:15:58;;;;;;;6.80;4.73;;;;;;;0.38;88.59;95058.11;1744256;82;21031;-72
2021/12/11 09:18:39;;;;;;;10.13;6.70;;;;;;;0.38;88.54;95060.27;1774033;81;21034;-73
2021/12/11 09:21:24;;;;;;;10.17;5.97;;;;;;;0.40;88.42;95055.08;1776027;80;21093;-72
2021/12/11 09:23:54;;;;;;;13.40;5.90;;;;;;;0.42;88.46;95060.73;1776089;81;21091;-73
2021/12/11 09:26:26;;;;;;;12.70;7.80;;;;;;;0.44;88.49;95063.36;1776334;81;21013;-72
2021/12/11 09:29:01;;;;;;;21.10;13.07;;;;;;;0.45;88.29;95061.63;1776387;80;21071;-72
2021/12/11 09:31:36;;;;;;;11.63;7.23;;;;;;;0.52;88.20;95077.72;1775679;80;21007;-72
2021/12/11 09:34:11;;;;;;;9.53;6.27;;;;;;;0.61;88.25;95072.20;1776243;80;21045;-72
2021/12/11 09:36:43;;;;;;;10.27;6.17;;;;;;;0.61;88.02;95062.26;1775809;80;21011;-69
2021/12/11 09:39:15;;;;;;;24.77;12.73;;;;;;;0.63;88.05;95062.72;1782288;80;21064;-71
2021/12/11 09:41:41;;;;;;;22.97;12.40;;;;;;;0.59;87.61;95069.16;1744558;82;21505;-72
2021/12/11 09:44:15;;;;;;;23.17;9.80;;;;;;;0.52;87.02;95068.63;1775898;81;20979;-72
2021/12/11 09:46:47;;;;;;;15.23;8.10;;;;;;;0.36;87.36;95065.00;1776745;80;20984;-72
2021/12/11 09:49:19;;;;;;;13.40;8.17;;;;;;;0.37;87.92;95066.30;1780560;80;21011;-72
2021/12/11 09:51:49;;;;;;;17.30;9.80;;;;;;;0.43;88.02;95063.79;1776257;81;21473;-72
2021/12/11 09:54:23;;;;;;;26.70;13.93;;;;;;;0.36;88.10;95063.27;1775824;81;21117;-72
2021/12/11 09:56:58;;;;;;;34.10;17.57;;;;;;;0.35;88.03;95060.64;1776354;80;20955;-72
2021/12/11 09:59:29;;;;;;;27.40;15.50;;;;;;;0.24;87.63;95060.95;1776776;80;21002;-72
2021/12/11 10:02:01;;;;;;;27.13;13.50;;;;;;;0.26;88.04;95052.77;1776250;80;20979;-72
2021/12/11 10:04:34;;;;;;;21.87;11.97;;;;;;;0.26;88.69;95051.04;1776428;80;21113;-72
2021/12/11 10:09:43;;;;;;;15.07;8.63;;;;;;;0.30;88.99;95062.31;1775956;80;21045;-72
2021/12/11 10:12:17;;;;;;;20.80;10.60;;;;;;;0.23;89.05;95060.48;1776416;81;20962;-72
2021/12/11 10:14:49;;;;;;;18.50;9.03;;;;;;;0.24;88.99;95059.22;1776139;80;21276;-72
2021/12/11 10:17:24;;;;;;;16.23;9.30;;;;;;;0.21;89.58;95054.00;1776149;80;21030;-71
2021/12/11 10:19:55;;;;;;;20.13;10.90;;;;;;;0.25;89.57;95047.98;1776282;80;20967;-71
2021/12/11 10:22:27;;;;;;;13.23;6.80;;;;;;;0.23;89.55;95044.52;1774263;80;21504;-72
2021/12/11 10:24:55;;;;;;;20.60;10.83;;;;;;;0.32;89.58;95034.23;1773800;81;21532;-72
2021/12/11 10:27:26;;;;;;;24.13;13.30;;;;;;;0.33;89.66;95032.09;1746555;82;21082;-72
2021/12/11 10:29:55;;;;;;;32.20;15.60;;;;;;;0.42;89.46;95030.02;1773736;81;21062;-72
2021/12/11 10:32:27;;;;;;;19.00;9.93;;;;;;;0.31;89.93;95023.85;1746692;82;21003;-71
2021/12/11 10:34:59;;;;;;;22.93;9.40;;;;;;;0.38;90.23;95027.83;1773880;81;21492;-72
2021/12/11 10:37:35;;;;;;;15.60;7.83;;;;;;;0.36;90.35;95020.45;1746398;82;21004;-72
2021/12/11 10:40:07;;;;;;;35.20;16.23;;;;;;;0.46;90.39;95017.97;1773716;81;21062;-72
2021/12/11 10:42:34;;;;;;;26.00;14.40;;;;;;;0.53;90.30;95031.42;1766477;81;21007;-72
2021/12/11 10:45:04;;;;;;;16.27;8.40;;;;;;;0.53;90.31;95044.41;1773392;81;21023;-72
2021/12/11 10:47:39;;;;;;;18.90;9.80;;;;;;;0.52;90.36;95040.08;1746759;82;21003;-71
2021/12/11 10:50:17;;;;;;;17.03;8.23;;;;;;;0.55;90.37;95029.72;1773809;81;21002;-72
2021/12/11 10:52:44;;;;;;;19.13;11.00;;;;;;;0.53;90.16;95037.52;1746450;82;21011;-72
2021/12/11 10:55:17;;;;;;;25.80;12.40;;;;;;;0.53;90.29;95045.70;1773478;80;21030;-72
2021/12/11 10:57:44;;;;;;;20.77;10.25;;;;;;;0.56;90.27;95045.33;1746552;82;21505;-72
2021/12/11 11:00:16;;;;;;;14.90;8.50;;;;;;;0.50;90.36;95043.08;1773616;81;21010;-72
2021/12/11 11:02:44;;;;;;;16.35;9.35;;;;;;;0.52;90.37;95042.24;1745145;81;21509;-72
2021/12/11 11:05:16;;;;;;;20.67;10.57;;;;;;;0.55;90.44;95038.38;1773594;81;20971;-72
2021/12/11 11:07:44;;;;;;;41.00;18.57;;;;;;;0.61;90.73;95041.05;1746291;82;21035;-71
2021/12/11 11:10:16;;;;;;;28.37;15.50;;;;;;;0.62;90.52;95036.73;1773477;81;20994;-72
2021/12/11 11:12:43;;;;;;;21.13;11.17;;;;;;;0.73;90.56;95031.63;1746395;82;21083;-72
2021/12/11 11:15:12;;;;;;;17.07;8.93;;;;;;;0.78;90.56;95028.66;1773711;80;21006;-72
2021/12/11 11:17:39;;;;;;;13.90;7.83;;;;;;;0.82;90.50;95027.41;1725587;82;21027;-72
2021/12/11 11:20:11;;;;;;;14.57;7.13;;;;;;;0.85;90.24;95022.23;1773591;81;21034;-72
2021/12/11 11:22:42;;;;;;;32.83;14.43;;;;;;;0.91;90.21;95012.36;1747753;82;21102;-72
2021/12/11 11:25:14;;;;;;;32.30;15.90;;;;;;;0.91;89.92;95021.45;1775648;80;21011;-71
2021/12/11 11:27:45;;;;;;;27.50;13.53;;;;;;;0.88;89.76;95016.63;1776234;81;21078;-72
2021/12/11 11:30:17;;;;;;;29.03;14.60;;;;;;;0.93;90.15;95021.00;1776131;81;20971;-72
2021/12/11 11:32:44;;;;;;;19.73;9.13;;;;;;;1.01;90.07;95014.17;1775780;81;21058;-70
2021/12/11 11:35:18;;;;;;;28.60;13.67;;;;;;;1.08;90.08;95013.78;1775793;81;21078;-72
2021/12/11 11:37:49;;;;;;;37.13;22.37;;;;;;;1.16;90.13;95012.14;1776332;81;21461;-72
2021/12/11 11:40:21;;;;;;;32.00;17.00;;;;;;;1.16;89.91;95005.64;1775939;81;21075;-71
2021/12/11 11:42:49;;;;;;;22.50;12.27;;;;;;;1.22;89.73;94997.02;1775736;81;20995;-72
2021/12/11 11:45:16;;;;;;;20.47;11.10;;;;;;;1.26;89.73;95000.06;1775804;80;20999;-72
2021/12/11 11:47:44;;;;;;;28.53;15.63;;;;;;;1.35;89.92;95009.67;1775920;80;21014;-72
2021/12/11 11:50:15;;;;;;;23.27;13.43;;;;;;;1.29;89.08;95002.27;1775857;81;21018;-72
2021/12/11 11:52:43;;;;;;;29.70;15.93;;;;;;;1.24;88.88;95007.00;1776114;81;20978;-71
2021/12/11 11:55:15;;;;;;;25.63;13.37;;;;;;;1.24;88.90;95018.70;1775657;81;21022;-72
2021/12/11 11:57:47;;;;;;;31.23;15.90;;;;;;;1.23;88.80;95022.99;1776345;81;20987;-72
2021/12/11 12:00:26;;;;;;;34.03;19.05;;;;;;;1.19;88.83;95009.99;1776208;81;20991;-72